createdAt,value
2018-07-20T00:00:02.168Z,62.49
2018-07-20T00:00:42.703Z,62.49
2018-07-20T00:01:23.215Z,62.1
2018-07-20T00:02:03.758Z,62.2
2018-07-20T00:02:44.282Z,62.3
2018-07-20T00:03:24.814Z,62.49
2018-07-20T00:04:05.348Z,62.69
2018-07-20T00:04:45.870Z,62.1
2018-07-20T00:05:26.394Z,62.59
2018-07-20T00:06:08.915Z,62.59
2018-07-20T00:06:49.430Z,62.3
2018-07-20T00:07:29.968Z,62.1
2018-07-20T00:08:10.493Z,61.91
2018-07-20T00:08:50.999Z,62.2
2018-07-20T00:09:31.511Z,62.4
2018-07-20T00:10:12.039Z,62.1
2018-07-20T00:10:52.576Z,62.2
2018-07-20T00:11:33.078Z,62.01
2018-07-20T00:12:13.580Z,62.01
2018-07-20T00:12:54.063Z,62.01
2018-07-20T00:13:34.555Z,62.01
2018-07-20T00:14:15.045Z,62.3
2018-07-20T00:14:55.550Z,62.3
2018-07-20T00:15:36.073Z,62.01
2018-07-20T00:16:16.604Z,62.2
2018-07-20T00:16:57.152Z,62.01
2018-07-20T00:17:37.664Z,62.1
2018-07-20T00:18:18.187Z,62.07
2018-07-20T00:18:58.731Z,62.66
2018-07-20T00:19:39.252Z,62.46
2018-07-20T00:20:19.775Z,62.37
2018-07-20T00:21:00.284Z,62.4
2018-07-20T00:21:40.792Z,62.37
2018-07-20T00:22:21.343Z,62.66
2018-07-20T00:23:01.867Z,62.27
2018-07-20T00:23:42.365Z,62.56
2018-07-20T00:24:22.904Z,62.27
2018-07-20T00:25:03.417Z,62.66
2018-07-20T00:25:44.013Z,62.66
2018-07-20T00:26:24.519Z,62.69
2018-07-20T00:27:05.035Z,62.17
2018-07-20T00:27:45.562Z,62.66
2018-07-20T00:28:26.080Z,62.46
2018-07-20T00:29:06.601Z,62.27
2018-07-20T00:29:47.145Z,62.17
2018-07-20T00:30:27.740Z,62.46
2018-07-20T00:31:08.198Z,62.17
2018-07-20T00:33:01.249Z,63.34
2018-07-20T00:33:41.772Z,63.14
2018-07-20T00:34:22.326Z,63.04
2018-07-20T00:35:02.857Z,63.24
2018-07-20T00:35:43.385Z,62.37
2018-07-20T00:36:23.908Z,62.27
2018-07-20T00:37:04.432Z,62.37
2018-07-20T00:37:44.970Z,61.98
2018-07-20T00:38:25.500Z,61.4
2018-07-20T00:39:06.041Z,61.4
2018-07-20T00:39:46.569Z,61.49
2018-07-20T00:40:27.091Z,61.4
2018-07-20T00:41:07.602Z,61.98
2018-07-20T00:41:48.140Z,62.07
2018-07-20T00:42:28.663Z,62.07
2018-07-20T00:43:09.181Z,62.07
2018-07-20T00:43:49.699Z,61.98
2018-07-20T00:44:30.228Z,61.79
2018-07-20T00:45:10.743Z,62.17
2018-07-20T00:45:51.273Z,62.27
2018-07-20T00:46:31.762Z,61.4
2018-07-20T00:47:12.273Z,61.69
2018-07-20T00:47:52.825Z,61.69
2018-07-20T00:48:33.331Z,61.3
2018-07-20T00:49:13.843Z,62.17
2018-07-20T00:49:54.385Z,61.88
2018-07-20T00:50:34.899Z,61.98
2018-07-20T00:51:15.425Z,62.07
2018-07-20T00:51:55.941Z,62.07
2018-07-20T00:52:36.462Z,62.37
2018-07-20T00:53:16.971Z,62.37
2018-07-20T00:53:57.514Z,62.37
2018-07-20T00:55:55.790Z,62.07
2018-07-20T00:56:36.322Z,62.17
2018-07-20T00:57:16.835Z,61.69
2018-07-20T00:57:57.345Z,62.07
2018-07-20T00:58:37.857Z,61.69
2018-07-20T00:59:18.348Z,62.17
2018-07-20T00:59:58.837Z,61.88
2018-07-20T01:00:39.361Z,62.17
2018-07-20T01:01:19.869Z,61.98
2018-07-20T01:02:00.395Z,61.88
2018-07-20T01:02:40.884Z,62.04
2018-07-20T01:03:21.414Z,62.37
2018-07-20T01:04:01.941Z,61.98
2018-07-20T01:04:42.458Z,62.37
2018-07-20T01:05:22.998Z,61.79
2018-07-20T01:06:03.462Z,61.4
2018-07-20T01:06:44.000Z,61.59
2018-07-20T01:07:24.499Z,62.07
2018-07-20T01:08:05.024Z,62.27
2018-07-20T01:08:45.544Z,62.27
2018-07-20T01:09:26.067Z,62.27
2018-07-20T01:10:06.588Z,61.88
2018-07-20T01:10:47.156Z,62.07
2018-07-20T01:11:27.687Z,62.17
2018-07-20T01:12:08.215Z,61.98
2018-07-20T01:12:48.718Z,62.07
2018-07-20T01:13:29.247Z,61.98
2018-07-20T01:14:09.770Z,62.37
2018-07-20T01:14:50.296Z,61.4
2018-07-20T01:15:30.809Z,61.21
2018-07-20T01:16:11.318Z,61.56
2018-07-20T01:16:51.820Z,61.85
2018-07-20T01:17:32.348Z,62.14
2018-07-20T01:18:12.855Z,62.04
2018-07-20T01:18:53.394Z,62.24
2018-07-20T01:19:33.919Z,62.07
2018-07-20T01:20:14.462Z,61.95
2018-07-20T01:20:54.991Z,62.04
2018-07-20T01:21:35.516Z,62.53
2018-07-20T01:22:16.027Z,62.43
2018-07-20T01:22:56.541Z,62.53
2018-07-20T01:23:37.064Z,62.53
2018-07-20T01:24:17.600Z,62.72
2018-07-20T01:24:58.095Z,62.14
2018-07-20T01:25:38.624Z,62.53
2018-07-20T01:26:19.138Z,62.82
2018-07-20T01:26:59.687Z,62.92
2018-07-20T01:27:40.200Z,63.11
2018-07-20T01:28:20.746Z,63.11
2018-07-20T01:29:01.280Z,62.82
2018-07-20T01:29:41.802Z,63.11
2018-07-20T01:30:22.323Z,63.4
2018-07-20T01:31:02.841Z,63.31
2018-07-20T01:31:43.355Z,63.27
2018-07-20T01:32:23.876Z,63.4
2018-07-20T01:33:04.411Z,63.4
2018-07-20T01:33:44.937Z,63.49
2018-07-20T01:34:25.483Z,63.21
2018-07-20T01:35:06.029Z,63.49
2018-07-20T01:35:46.541Z,63.69
2018-07-20T01:36:27.058Z,63.59
2018-07-20T01:37:07.564Z,63.59
2018-07-20T01:37:48.091Z,63.79
2018-07-20T01:38:28.594Z,63.59
2018-07-20T01:39:09.114Z,63.59
2018-07-20T01:39:49.637Z,63.59
2018-07-20T01:40:30.157Z,63.49
2018-07-20T01:41:10.688Z,63.89
2018-07-20T01:41:51.192Z,63.59
2018-07-20T01:42:31.706Z,64.14
2018-07-20T01:43:12.221Z,64.43
2018-07-20T01:43:52.739Z,63.89
2018-07-20T01:44:33.248Z,63.89
2018-07-20T01:45:13.769Z,63.79
2018-07-20T01:45:54.340Z,63.59
2018-07-20T01:46:34.865Z,63.59
2018-07-20T01:47:15.400Z,63.4
2018-07-20T01:47:55.933Z,63.49
2018-07-20T01:48:36.450Z,63.59
2018-07-20T01:49:16.998Z,63.11
2018-07-20T01:49:57.527Z,63.4
2018-07-20T01:50:38.051Z,63.49
2018-07-20T01:51:18.556Z,63.49
2018-07-20T01:51:59.067Z,63.4
2018-07-20T01:52:39.586Z,63.31
2018-07-20T01:53:20.102Z,63.01
2018-07-20T01:54:00.618Z,63.31
2018-07-20T01:54:41.158Z,63.59
2018-07-20T01:55:21.656Z,63.69
2018-07-20T01:56:02.183Z,63.18
2018-07-20T01:56:42.701Z,63.18
2018-07-20T01:57:23.215Z,63.56
2018-07-20T01:58:03.741Z,63.46
2018-07-20T01:58:44.254Z,63.21
2018-07-20T01:59:24.780Z,63.37
2018-07-20T02:00:05.310Z,63.27
2018-07-20T02:00:45.812Z,63.18
2018-07-20T02:01:26.327Z,62.98
2018-07-20T02:02:06.847Z,63.08
2018-07-20T02:02:47.337Z,62.88
2018-07-20T02:03:27.874Z,62.88
2018-07-20T02:04:08.396Z,62.98
2018-07-20T02:04:48.921Z,63.21
2018-07-20T02:05:29.442Z,63.4
2018-07-20T02:06:09.958Z,63.11
2018-07-20T02:06:50.499Z,63.01
2018-07-20T02:07:31.024Z,63.56
2018-07-20T02:08:11.553Z,63.21
2018-07-20T02:08:52.089Z,63.49
2018-07-20T02:09:32.604Z,63.18
2018-07-20T02:10:13.130Z,63.66
2018-07-20T02:10:53.640Z,63.56
2018-07-20T02:11:34.155Z,63.27
2018-07-20T02:12:14.672Z,63.66
2018-07-20T02:12:55.190Z,63.95
2018-07-20T02:13:35.698Z,63.37
2018-07-20T02:14:16.224Z,63.46
2018-07-20T02:14:56.785Z,64.82
2018-07-20T02:15:37.245Z,64.72
2018-07-20T02:16:17.788Z,64.53
2018-07-20T02:16:58.304Z,64.14
2018-07-20T02:17:38.820Z,63.95
2018-07-20T02:18:19.342Z,63.85
2018-07-20T02:18:59.862Z,63.76
2018-07-20T02:19:40.396Z,63.95
2018-07-20T02:20:20.917Z,63.46
2018-07-20T02:21:01.422Z,63.46
2018-07-20T02:21:41.946Z,63.56
2018-07-20T02:22:22.460Z,63.76
2018-07-20T02:23:02.993Z,63.76
2018-07-20T02:23:43.520Z,63.85
2018-07-20T02:24:24.045Z,63.56
2018-07-20T02:25:04.557Z,63.76
2018-07-20T02:25:45.077Z,63.56
2018-07-20T02:26:25.601Z,63.56
2018-07-20T02:27:06.109Z,63.76
2018-07-20T02:27:46.631Z,63.53
2018-07-20T02:28:27.164Z,64.59
2018-07-20T02:29:07.686Z,64.24
2018-07-20T02:29:48.208Z,64.11
2018-07-20T02:30:28.735Z,64.31
2018-07-20T02:31:09.245Z,64.31
2018-07-20T02:31:49.768Z,64.11
2018-07-20T02:32:30.300Z,64.5
2018-07-20T02:33:10.814Z,64.24
2018-07-20T02:33:51.343Z,64.11
2018-07-20T02:34:31.890Z,64.21
2018-07-20T02:35:12.405Z,64.11
2018-07-20T02:35:52.927Z,63.56
2018-07-20T02:36:33.457Z,64.34
2018-07-20T02:37:13.981Z,63.85
2018-07-20T02:37:54.509Z,63.95
2018-07-20T02:38:35.025Z,63.76
2018-07-20T02:39:15.547Z,64.34
2018-07-20T02:39:56.077Z,64.04
2018-07-20T02:40:36.585Z,63.92
2018-07-20T02:41:17.116Z,64.34
2018-07-20T02:41:57.634Z,64.69
2018-07-20T02:42:38.175Z,64.89
2018-07-20T02:43:18.701Z,64.92
2018-07-20T02:43:59.225Z,65.2
2018-07-20T02:44:39.737Z,65.59
2018-07-20T02:45:20.259Z,65.47
2018-07-20T02:46:00.784Z,65.59
2018-07-20T02:46:41.298Z,66.14
2018-07-20T02:47:21.808Z,65.75
2018-07-20T02:48:02.345Z,65.85
2018-07-20T02:48:42.868Z,65.85
2018-07-20T02:49:23.402Z,65.75
2018-07-20T02:50:03.934Z,65.95
2018-07-20T02:50:44.457Z,65.85
2018-07-20T02:51:24.983Z,66.63
2018-07-20T02:52:05.490Z,66.63
2018-07-20T02:52:46.003Z,66.72
2018-07-20T02:53:26.516Z,66.72
2018-07-20T02:54:07.040Z,66.82
2018-07-20T02:54:47.563Z,66.72
2018-07-20T02:55:28.081Z,66.82
2018-07-20T02:56:08.592Z,66.72
2018-07-20T02:56:49.114Z,66.24
2018-07-20T02:57:29.625Z,67.01
2018-07-20T02:58:10.176Z,66.88
2018-07-20T02:58:50.661Z,66.98
2018-07-20T02:59:31.178Z,68.14
2018-07-20T03:00:11.700Z,67.94
2018-07-20T03:00:52.218Z,68.33
2018-07-20T03:01:32.747Z,68.24
2018-07-20T03:02:13.269Z,68.04
2018-07-20T03:02:53.790Z,67.56
2018-07-20T03:03:34.301Z,67.36
2018-07-20T03:04:14.826Z,67.46
2018-07-20T03:04:55.342Z,67.08
2018-07-20T03:05:35.865Z,66.98
2018-07-20T03:06:16.398Z,66.88
2018-07-20T03:06:56.913Z,66.78
2018-07-20T03:07:37.440Z,66.88
2018-07-20T03:08:17.943Z,67.27
2018-07-20T03:08:58.536Z,67.08
2018-07-20T03:09:38.982Z,67.14
2018-07-20T03:10:19.486Z,67.27
2018-07-20T03:11:00.007Z,67.17
2018-07-20T03:11:40.521Z,67.27
2018-07-20T03:12:21.044Z,66.98
2018-07-20T03:13:01.597Z,66.88
2018-07-20T03:13:42.121Z,66.78
2018-07-20T03:14:22.645Z,67.82
2018-07-20T03:15:03.176Z,68.1
2018-07-20T03:15:43.700Z,67.72
2018-07-20T03:16:24.217Z,68.2
2018-07-20T03:17:04.745Z,68.49
2018-07-20T03:17:45.270Z,68.01
2018-07-20T03:18:25.797Z,68.01
2018-07-20T03:19:06.320Z,68.3
2018-07-20T03:19:46.839Z,67.91
2018-07-20T03:20:27.353Z,68.2
2018-07-20T03:21:07.907Z,68.1
2018-07-20T03:21:48.399Z,68.3
2018-07-20T03:22:28.953Z,67.91
2018-07-20T03:23:09.439Z,68.1
2018-07-20T03:23:49.968Z,67.91
2018-07-20T03:24:30.490Z,67.91
2018-07-20T03:25:11.008Z,68.01
2018-07-20T03:25:51.536Z,67.91
2018-07-20T03:26:32.067Z,68.01
2018-07-20T03:27:12.602Z,67.72
2018-07-20T03:27:53.118Z,67.43
2018-07-20T03:28:33.645Z,67.43
2018-07-20T03:29:14.157Z,67.24
2018-07-20T03:29:54.688Z,67.14
2018-07-20T03:30:35.215Z,66.94
2018-07-20T03:31:15.736Z,66.66
2018-07-20T03:31:56.255Z,66.88
2018-07-20T03:32:36.844Z,66.98
2018-07-20T03:33:17.297Z,66.78
2018-07-20T03:33:57.817Z,67.08
2018-07-20T03:34:38.353Z,67.43
2018-07-20T03:35:18.870Z,67.14
2018-07-20T03:35:59.398Z,66.94
2018-07-20T03:36:39.920Z,67.43
2018-07-20T03:37:20.455Z,66.69
2018-07-20T03:38:00.978Z,66.94
2018-07-20T03:38:41.503Z,66.88
2018-07-20T03:39:22.036Z,66.08
2018-07-20T03:40:02.792Z,66.3
2018-07-20T03:40:43.317Z,66.59
2018-07-20T03:41:23.829Z,66.59
2018-07-20T03:42:04.348Z,66.78
2018-07-20T03:42:44.874Z,66.85
2018-07-20T03:43:25.396Z,67.14
2018-07-20T03:44:05.914Z,66.85
2018-07-20T03:44:46.435Z,66.59
2018-07-20T03:45:26.962Z,66.78
2018-07-20T03:46:07.488Z,66.98
2018-07-20T03:46:48.002Z,66.69
2018-07-20T03:47:28.540Z,66.69
2018-07-20T03:48:09.081Z,66.59
2018-07-20T03:48:49.609Z,66.75
2018-07-20T03:49:30.123Z,67.04
2018-07-20T03:50:10.655Z,66.78
2018-07-20T03:50:51.180Z,66.98
2018-07-20T03:51:31.714Z,66.98
2018-07-20T03:52:12.244Z,66.78
2018-07-20T03:52:52.755Z,66.98
2018-07-20T03:53:33.282Z,67.24
2018-07-20T03:54:13.805Z,66.94
2018-07-20T03:54:54.328Z,66.75
2018-07-20T03:55:34.855Z,67.14
2018-07-20T03:56:15.384Z,67.04
2018-07-20T03:56:55.905Z,67.14
2018-07-20T03:57:36.433Z,67.14
2018-07-20T03:58:16.953Z,66.98
2018-07-20T03:58:57.464Z,66.98
2018-07-20T03:59:37.999Z,67.17
2018-07-20T04:00:18.519Z,67.08
2018-07-20T04:00:59.043Z,66.78
2018-07-20T04:01:39.552Z,66.98
2018-07-20T04:02:20.095Z,67.08
2018-07-20T04:03:00.638Z,66.78
2018-07-20T04:03:41.133Z,66.88
2018-07-20T04:04:21.671Z,66.78
2018-07-20T04:05:02.189Z,67.08
2018-07-20T04:05:42.701Z,66.4
2018-07-20T04:06:23.236Z,66.69
2018-07-20T04:07:03.744Z,66.5
2018-07-20T04:07:44.289Z,66.4
2018-07-20T04:08:24.796Z,66.88
2018-07-20T04:09:05.336Z,66.2
2018-07-20T04:09:45.858Z,66.78
2018-07-20T04:10:26.386Z,66.59
2018-07-20T04:11:06.906Z,66.88
2018-07-20T04:11:47.425Z,66.5
2018-07-20T04:12:27.940Z,66.01
2018-07-20T04:13:08.436Z,66.3
2018-07-20T04:13:48.958Z,66.11
2018-07-20T04:14:29.483Z,65.72
2018-07-20T04:15:10.017Z,65.75
2018-07-20T04:15:50.522Z,66.05
2018-07-20T04:16:31.051Z,66.05
2018-07-20T04:17:11.576Z,66.11
2018-07-20T04:17:52.103Z,65.95
2018-07-20T04:18:32.624Z,65.82
2018-07-20T04:19:13.151Z,66.01
2018-07-20T04:19:53.664Z,65.66
2018-07-20T04:20:34.179Z,66.05
2018-07-20T04:21:14.698Z,65.47
2018-07-20T04:21:55.217Z,65.85
2018-07-20T04:22:35.721Z,65.56
2018-07-20T04:23:16.250Z,65.17
2018-07-20T04:23:56.762Z,65.17
2018-07-20T04:24:37.292Z,64.5
2018-07-20T04:25:17.810Z,64.5
2018-07-20T04:25:58.325Z,64.98
2018-07-20T04:26:38.846Z,64.89
2018-07-20T04:27:19.356Z,64.79
2018-07-20T04:27:59.889Z,65.37
2018-07-20T04:28:40.411Z,64.98
2018-07-20T04:29:20.932Z,65.08
2018-07-20T04:30:01.471Z,64.89
2018-07-20T04:30:42.002Z,64.4
2018-07-20T04:31:22.526Z,64.98
2018-07-20T04:32:03.065Z,64.89
2018-07-20T04:32:43.599Z,64.69
2018-07-20T04:33:24.108Z,64.59
2018-07-20T04:34:04.633Z,64.14
2018-07-20T04:34:45.141Z,63.56
2018-07-20T04:35:25.681Z,63.69
2018-07-20T04:36:06.188Z,63.11
2018-07-20T04:36:46.714Z,63.01
2018-07-20T04:37:27.238Z,63.11
2018-07-20T04:38:07.768Z,63.59
2018-07-20T04:38:48.482Z,63.21
2018-07-20T04:39:29.074Z,63.31
2018-07-20T04:40:09.573Z,63.4
2018-07-20T04:40:50.132Z,63.76
2018-07-20T04:41:30.630Z,63.56
2018-07-20T04:42:11.147Z,63.37
2018-07-20T04:42:51.759Z,63.56
2018-07-20T04:43:32.337Z,63.85
2018-07-20T04:44:12.863Z,64.14
2018-07-20T04:44:53.378Z,64.53
2018-07-20T04:45:33.898Z,64.24
2018-07-20T04:46:14.463Z,64.14
2018-07-20T04:46:54.978Z,64.43
2018-07-20T04:47:35.499Z,64.72
2018-07-20T04:48:16.034Z,64.43
2018-07-20T04:48:56.559Z,64.92
2018-07-20T04:49:37.107Z,65.47
2018-07-20T04:50:17.659Z,65.11
2018-07-20T04:50:58.178Z,64.53
2018-07-20T04:51:38.702Z,64.92
2018-07-20T04:52:19.228Z,65.01
2018-07-20T04:52:59.768Z,64.82
2018-07-20T04:53:40.292Z,64.53
2018-07-20T04:54:20.823Z,64.53
2018-07-20T04:55:01.348Z,64.72
2018-07-20T04:55:41.875Z,64.92
2018-07-20T04:56:22.521Z,65.01
2018-07-20T04:57:03.054Z,64.92
2018-07-20T04:57:43.569Z,64.82
2018-07-20T04:58:24.086Z,65.2
2018-07-20T04:59:04.625Z,65.11
2018-07-20T04:59:45.159Z,65.3
2018-07-20T05:00:25.682Z,65.5
2018-07-20T05:01:06.212Z,65.59
2018-07-20T05:01:46.750Z,65.5
2018-07-20T05:02:27.244Z,65.11
2018-07-20T05:03:07.780Z,65.11
2018-07-20T05:03:48.335Z,65.11
2018-07-20T05:04:28.831Z,65.2
2018-07-20T05:05:09.352Z,65.59
2018-07-20T05:05:49.923Z,65.47
2018-07-20T05:06:30.419Z,65.79
2018-07-20T05:07:10.955Z,65.4
2018-07-20T05:07:51.424Z,64.82
2018-07-20T05:08:31.932Z,65.5
2018-07-20T05:09:12.460Z,65.4
2018-07-20T05:09:52.975Z,65.4
2018-07-20T05:10:33.487Z,64.82
2018-07-20T05:11:14.009Z,64.53
2018-07-20T05:11:54.547Z,64.62
2018-07-20T05:12:35.061Z,64.72
2018-07-20T05:13:15.574Z,64.66
2018-07-20T05:13:56.110Z,64.17
2018-07-20T05:14:36.621Z,63.89
2018-07-20T05:15:17.133Z,63.89
2018-07-20T05:15:57.670Z,63.69
2018-07-20T05:16:38.181Z,63.49
2018-07-20T05:17:18.722Z,63.24
2018-07-20T05:17:59.243Z,63.62
2018-07-20T05:18:39.745Z,69.59
2018-07-20T05:19:20.273Z,71.44
2018-07-20T05:20:00.791Z,71.53
2018-07-20T05:20:41.313Z,73.95
2018-07-20T05:21:21.837Z,73.18
2018-07-20T05:22:02.374Z,70.08
2018-07-20T05:22:42.904Z,68.73
2018-07-20T05:23:23.375Z,66.69
2018-07-20T05:24:03.954Z,71.04
2018-07-20T05:24:44.375Z,70.66
2018-07-20T05:25:24.899Z,68.69
2018-07-20T05:26:05.424Z,73.08
2018-07-20T05:26:45.900Z,72.95
2018-07-20T05:27:26.382Z,69.85
2018-07-20T05:28:06.891Z,69.66
2018-07-20T05:28:47.396Z,72.56
2018-07-20T05:29:27.973Z,71.34
2018-07-20T05:30:08.495Z,72.46
2018-07-20T05:30:48.993Z,77.5
2018-07-20T05:31:29.487Z,74.21
2018-07-20T05:32:10.020Z,76.24
2018-07-20T05:32:50.533Z,74.69
2018-07-20T05:33:31.032Z,70.72
2018-07-20T05:34:11.558Z,73.24
2018-07-20T05:34:52.082Z,71.4
2018-07-20T05:35:32.601Z,68.3
2018-07-20T05:36:13.186Z,68.88
2018-07-20T05:36:53.750Z,68.79
2018-07-20T05:37:34.217Z,68.21
2018-07-20T05:38:14.959Z,67.53
2018-07-20T05:38:55.568Z,67.95
2018-07-20T05:39:35.746Z,67.33
2018-07-20T05:40:16.283Z,67.14
2018-07-20T05:40:56.933Z,72.75
2018-07-20T05:41:37.439Z,72.17
2018-07-20T05:42:17.918Z,69.46
2018-07-20T05:42:58.442Z,68.69
2018-07-20T05:43:39.041Z,71.98
2018-07-20T05:44:19.568Z,74.88
2018-07-20T05:45:00.190Z,73.43
2018-07-20T05:45:40.718Z,74.59
2018-07-20T05:46:21.246Z,71.66
2018-07-20T05:47:01.833Z,73.88
2018-07-20T05:47:42.319Z,71.11
2018-07-20T05:48:22.940Z,71.5
2018-07-20T05:49:03.467Z,70.04
2018-07-20T05:49:44.005Z,74.69
2018-07-20T05:50:24.518Z,74.59
2018-07-20T05:51:05.076Z,71.94
2018-07-20T05:51:45.589Z,69.04
2018-07-20T05:52:26.135Z,72.42
2018-07-20T05:53:06.633Z,73.04
2018-07-20T05:53:47.159Z,74.01
2018-07-20T05:54:27.669Z,71.98
2018-07-20T05:55:08.209Z,71.69
2018-07-20T05:55:48.732Z,78.46
2018-07-20T05:56:29.251Z,78.85
2018-07-20T05:57:09.775Z,79.62
2018-07-20T05:57:50.304Z,81.75
2018-07-20T05:58:30.821Z,76.14
2018-07-20T05:59:11.344Z,68.49
2018-07-20T05:59:51.874Z,66.56
2018-07-20T06:00:32.414Z,75.4
2018-07-20T06:01:12.951Z,75.6
2018-07-20T06:01:53.472Z,70.89
2018-07-20T06:02:34.013Z,68.08
2018-07-20T06:03:14.707Z,75.09
2018-07-20T06:03:55.224Z,70.34
2018-07-20T06:04:35.798Z,78.03
2018-07-20T06:05:16.387Z,77.75
2018-07-20T06:05:56.918Z,70.37
2018-07-20T06:06:37.465Z,65.95
2018-07-20T06:07:17.976Z,64.3
2018-07-20T06:07:58.471Z,63.53
2018-07-20T06:08:38.995Z,67.24
2018-07-20T06:09:19.501Z,74.52
2018-07-20T06:10:00.053Z,67.14
2018-07-20T06:10:40.566Z,67.37
2018-07-20T06:11:21.102Z,73.58
2018-07-20T06:12:01.623Z,69.51
2018-07-20T06:12:42.149Z,69.6
2018-07-20T06:13:22.671Z,66.4
2018-07-20T06:14:03.281Z,62.65
2018-07-20T06:14:43.753Z,68.93
2018-07-20T06:15:24.295Z,71.48
2018-07-20T06:16:04.793Z,72.45
2018-07-20T06:16:45.286Z,72.85
2018-07-20T06:17:25.804Z,69.12
2018-07-20T06:18:06.327Z,67.31
2018-07-20T06:18:46.834Z,69.84
2018-07-20T06:19:27.624Z,65.95
2018-07-20T06:20:08.170Z,63.52
2018-07-20T06:20:48.647Z,61.61
2018-07-20T06:21:29.228Z,62.38
2018-07-20T06:22:09.709Z,60.35
2018-07-20T06:22:50.225Z,63.13
2018-07-20T06:23:30.738Z,63.81
2018-07-20T06:24:11.230Z,64.98
2018-07-20T06:24:51.866Z,61.51
2018-07-20T06:25:32.253Z,59.95
2018-07-20T06:26:12.773Z,62.38
2018-07-20T06:26:53.296Z,61.71
2018-07-20T06:27:33.762Z,62.87
2018-07-20T06:28:14.285Z,61.51
2018-07-20T06:28:54.815Z,62.35
2018-07-20T06:29:35.389Z,61.87
2018-07-20T06:30:15.815Z,61.68
2018-07-20T06:30:56.333Z,63.71
2018-07-20T06:31:37.001Z,65.05
2018-07-20T06:32:17.554Z,62.16
2018-07-20T06:32:58.055Z,60.61
2018-07-20T06:33:38.554Z,62.45
2018-07-20T06:34:19.014Z,61.58
2018-07-20T06:34:59.499Z,61
2018-07-20T06:35:40.009Z,59.67
2018-07-20T06:36:20.532Z,61.02
2018-07-20T06:37:01.055Z,62.07
2018-07-20T06:37:41.591Z,60.71
2018-07-20T06:38:22.136Z,59.95
2018-07-20T06:39:02.653Z,62.58
2018-07-20T06:39:43.193Z,61.71
2018-07-20T06:40:23.718Z,63.26
2018-07-20T06:41:04.216Z,61.71
2018-07-20T06:41:44.743Z,59.57
2018-07-20T06:42:25.272Z,63.75
2018-07-20T06:43:05.810Z,64.91
2018-07-20T06:43:46.399Z,63.36
2018-07-20T06:44:26.889Z,64.14
2018-07-20T06:45:07.424Z,62.23
2018-07-20T06:45:47.960Z,62.29
2018-07-20T06:46:28.517Z,62.58
2018-07-20T06:47:09.043Z,62
2018-07-20T06:47:49.567Z,60.74
2018-07-20T06:48:30.096Z,60.64
2018-07-20T06:49:10.605Z,62
2018-07-20T06:49:51.270Z,61.77
2018-07-20T06:50:31.780Z,62.55
2018-07-20T06:51:12.292Z,62.35
2018-07-20T06:51:52.822Z,63.32
2018-07-20T06:52:33.350Z,61.09
2018-07-20T06:53:13.871Z,57.89
2018-07-20T06:53:54.384Z,56.46
2018-07-20T06:54:34.911Z,56.62
2018-07-20T06:55:15.433Z,60.71
2018-07-20T06:55:55.997Z,62.35
2018-07-20T06:56:36.573Z,62.65
2018-07-20T06:57:17.025Z,61.97
2018-07-20T06:57:57.555Z,60.25
2018-07-20T06:58:38.079Z,59.86
2018-07-20T06:59:18.605Z,59.79
2018-07-20T06:59:59.126Z,57.95
2018-07-20T07:00:39.643Z,58.33
2018-07-20T07:01:20.171Z,59.69
2018-07-20T07:02:00.679Z,59.76
2018-07-20T07:02:41.214Z,59.47
2018-07-20T07:03:21.724Z,59.57
2018-07-20T07:04:02.211Z,58.04
2018-07-20T07:04:42.741Z,58.92
2018-07-20T07:05:23.280Z,58.69
2018-07-20T07:06:03.770Z,59.79
2018-07-20T07:06:44.299Z,60.67
2018-07-20T07:07:24.841Z,58.72
2018-07-20T07:08:05.477Z,59.21
2018-07-20T07:08:46.007Z,59.82
2018-07-20T07:09:26.546Z,56.41
2018-07-20T07:10:07.088Z,54.66
2018-07-20T07:10:47.608Z,54.3
2018-07-20T07:11:28.141Z,55.27
2018-07-20T07:12:08.666Z,56.35
2018-07-20T07:12:49.188Z,55.47
2018-07-20T07:13:29.693Z,57.12
2018-07-20T07:14:10.215Z,56.45
2018-07-20T07:14:50.766Z,58.78
2018-07-20T07:15:31.248Z,56.25
2018-07-20T07:16:11.782Z,57.32
2018-07-20T07:16:52.322Z,57.74
2018-07-20T07:17:32.828Z,56.18
2018-07-20T07:18:13.383Z,57.71
2018-07-20T07:18:53.898Z,58.69
2018-07-20T07:19:34.423Z,58.42
2018-07-20T07:20:14.945Z,56.09
2018-07-20T07:20:55.484Z,54.91
2018-07-20T07:21:35.992Z,54.72
2018-07-20T07:22:16.575Z,59.69
2018-07-20T07:22:57.043Z,55.11
2018-07-20T07:23:37.609Z,52.99
2018-07-20T07:24:18.064Z,53.55
2018-07-20T07:24:58.597Z,55.13
2018-07-20T07:25:39.132Z,56.01
2018-07-20T07:26:19.673Z,55.52
2018-07-20T07:27:00.224Z,57.15
2018-07-20T07:27:40.747Z,57.25
2018-07-20T07:28:21.264Z,57.84
2018-07-20T07:29:01.780Z,59.56
2018-07-20T07:29:42.287Z,58.85
2018-07-20T07:30:22.832Z,58
2018-07-20T07:31:03.357Z,56.64
2018-07-20T07:31:43.882Z,57.32
2018-07-20T07:32:24.414Z,57.45
2018-07-20T07:33:04.924Z,58.1
2018-07-20T07:33:45.447Z,57.71
2018-07-20T07:34:25.973Z,57.78
2018-07-20T07:35:06.503Z,58.07
2018-07-20T07:35:47.124Z,58.46
2018-07-20T07:36:27.520Z,59.5
2018-07-20T07:37:08.048Z,59.89
2018-07-20T07:37:48.536Z,61.74
2018-07-20T07:38:29.054Z,61.02
2018-07-20T07:39:09.721Z,59.86
2018-07-20T07:39:50.253Z,61.93
2018-07-20T07:40:30.761Z,62.61
2018-07-20T07:41:11.452Z,62.71
2018-07-20T07:41:51.830Z,65.72
2018-07-20T07:42:32.356Z,65.01
2018-07-20T07:43:12.884Z,66.08
2018-07-20T07:43:53.382Z,63.75
2018-07-20T07:44:33.911Z,61.54
2018-07-20T07:45:14.437Z,61.02
2018-07-20T07:45:54.947Z,57.72
2018-07-20T07:46:35.468Z,61.83
2018-07-20T07:47:15.985Z,59.59
2018-07-20T07:47:56.487Z,56.59
2018-07-20T07:48:37.007Z,63.97
2018-07-20T07:49:17.508Z,61.64
2018-07-20T07:49:58.034Z,63.94
2018-07-20T07:50:38.567Z,65.11
2018-07-20T07:51:19.092Z,64.91
2018-07-20T07:51:59.607Z,63.62
2018-07-20T07:52:40.165Z,63.81
2018-07-20T07:53:20.711Z,63.13
2018-07-20T07:54:01.234Z,63.13
2018-07-20T07:54:41.828Z,61.09
2018-07-20T07:55:22.284Z,58.59
2018-07-20T07:56:02.806Z,56.46
2018-07-20T07:56:43.328Z,58.59
2018-07-20T07:57:23.848Z,58.31
2018-07-20T07:58:04.348Z,61.8
2018-07-20T07:58:45.016Z,62.84
2018-07-20T07:59:25.493Z,63.42
2018-07-20T08:00:05.971Z,63.1
2018-07-20T08:00:46.470Z,63.29
2018-07-20T08:01:26.985Z,60.9
2018-07-20T08:02:07.521Z,58.08
2018-07-20T08:02:48.109Z,56.65
2018-07-20T08:03:28.520Z,57.14
2018-07-20T08:04:09.039Z,56.16
2018-07-20T08:04:49.553Z,59.95
2018-07-20T08:05:30.034Z,59.11
2018-07-20T08:06:10.569Z,60.67
2018-07-20T08:06:51.103Z,60.67
2018-07-20T08:07:31.622Z,60.15
2018-07-20T08:08:12.149Z,58.04
2018-07-20T08:08:52.661Z,57.26
2018-07-20T08:09:33.203Z,55.54
2018-07-20T08:10:13.717Z,54.18
2018-07-20T08:10:54.182Z,56.51
2018-07-20T08:11:34.705Z,58.04
2018-07-20T08:12:15.628Z,58.62
2018-07-20T08:12:56.173Z,60.08
2018-07-20T08:13:36.700Z,59.69
2018-07-20T08:14:17.216Z,54.93
2018-07-20T08:14:57.749Z,52.92
2018-07-20T08:15:38.338Z,52.62
2018-07-20T08:16:18.774Z,53.5
2018-07-20T08:16:59.293Z,55.35
2018-07-20T08:17:39.834Z,60.11
2018-07-20T08:18:20.363Z,60.7
2018-07-20T08:19:00.890Z,64.1
2018-07-20T08:19:41.406Z,60.41
2018-07-20T08:20:21.919Z,56.12
2018-07-20T08:21:02.455Z,62.45
2018-07-20T08:21:43.002Z,60.21
2018-07-20T08:22:23.526Z,62.26
2018-07-20T08:23:04.044Z,61.64
2018-07-20T08:23:44.553Z,61.83
2018-07-20T08:24:25.065Z,62.64
2018-07-20T08:25:05.588Z,62.35
2018-07-20T08:25:46.121Z,64
2018-07-20T08:26:26.669Z,62.84
2018-07-20T08:27:07.178Z,61.96
2018-07-20T08:27:47.733Z,61.08
2018-07-20T08:28:28.275Z,62.06
2018-07-20T08:29:08.795Z,61.87
2018-07-20T08:29:49.318Z,60.77
2018-07-20T08:30:29.831Z,59.92
2018-07-20T08:31:10.353Z,61.57
2018-07-20T08:31:50.885Z,60.79
2018-07-20T08:32:31.405Z,55.25
2018-07-20T08:33:11.923Z,58.75
2018-07-20T08:33:52.469Z,58.95
2018-07-20T08:34:33.001Z,57.2
2018-07-20T08:35:13.512Z,58.17
2018-07-20T08:35:54.036Z,58.07
2018-07-20T08:36:34.571Z,54.86
2018-07-20T08:37:15.102Z,53.69
2018-07-20T08:37:55.622Z,54.66
2018-07-20T08:38:36.140Z,58.36
2018-07-20T08:39:16.665Z,57.39
2018-07-20T08:39:57.186Z,57.78
2018-07-20T08:40:37.705Z,59.69
2018-07-20T08:41:18.295Z,60.38
2018-07-20T08:41:58.762Z,58.33
2018-07-20T08:42:39.293Z,57.26
2018-07-20T08:43:19.825Z,61.15
2018-07-20T08:44:00.352Z,60.02
2018-07-20T08:44:40.891Z,56.51
2018-07-20T08:45:21.415Z,56.61
2018-07-20T08:46:01.958Z,57.87